Terminal Aerodrome Forecast
Issued by NWS

Home | Current Version | Previous Version | Text Only | Print | Product List | Glossary On
Versions: 1 2 3 4 5 6 7 8 9 10 11 12 13 14 15 16 17 18 19 20 21 22 23 24 25 26 27 28 29 30 31 32 33 34 35 36 37 38 39
000
FTUS43 KGRB 212300
TAFRHI
TAF
KRHI 212337Z 2200/2224 18008KT P6SM BKN035
     FM220400 19006KT P6SM SCT025 BKN035 WS015/21030KT
     FM220800 18005KT P6SM SCT018 BKN030 WS015/22035KT
      TEMPO 2210/2214 3SM TSRA SCT006 BKN018CB
     FM221500 21015G22KT P6SM SCT080 BKN250
     FM221900 27014G25KT P6SM SCT035 BKN090=

USA.gov is the U.S. government's official web portal to all federal, state and local government web resources and services.